sensor_id;sensor_type;location;lat;lon;timestamp;pressure;altitude;pressure_sealevel;temperature;humidity
70434;BME280;57876;47.792;12.960;2023-02-27T00:02:20;96934.94;;;15.23;44.21
70434;BME280;57876;47.792;12.960;2023-02-27T00:04:44;96937.66;;;15.23;44.19
70434;BME280;57876;47.792;12.960;2023-02-27T00:07:09;96936.88;;;15.22;43.54
70434;BME280;57876;47.792;12.960;2023-02-27T00:09:33;96941.03;;;15.19;44.44
70434;BME280;57876;47.792;12.960;2023-02-27T00:11:58;96954.19;;;15.26;44.25
70434;BME280;57876;47.792;12.960;2023-02-27T00:14:22;96937.81;;;15.17;43.95
70434;BME280;57876;47.792;12.960;2023-02-27T00:16:47;96939.91;;;15.20;44.29
70434;BME280;57876;47.792;12.960;2023-02-27T00:19:11;96964.28;;;15.26;44.21
70434;BME280;57876;47.792;12.960;2023-02-27T00:21:36;96957.25;;;15.25;44.12
70434;BME280;57876;47.792;12.960;2023-02-27T00:24:01;96952.03;;;15.14;44.06
70434;BME280;57876;47.792;12.960;2023-02-27T00:26:25;96949.19;;;15.19;44.05
70434;BME280;57876;47.792;12.960;2023-02-27T00:28:49;96950.00;;;15.20;44.01
70434;BME280;57876;47.792;12.960;2023-02-27T00:31:14;96947.72;;;15.13;43.95
70434;BME280;57876;47.792;12.960;2023-02-27T00:33:38;96953.34;;;15.17;44.04
70434;BME280;57876;47.792;12.960;2023-02-27T00:36:03;96946.09;;;15.12;43.83
70434;BME280;57876;47.792;12.960;2023-02-27T00:38:28;96968.78;;;15.22;44.23
70434;BME280;57876;47.792;12.960;2023-02-27T00:40:52;96966.03;;;15.22;44.14
70434;BME280;57876;47.792;12.960;2023-02-27T00:43:17;96951.53;;;15.12;44.05
70434;BME280;57876;47.792;12.960;2023-02-27T00:45:42;96969.38;;;15.18;44.01
70434;BME280;57876;47.792;12.960;2023-02-27T00:48:06;96954.28;;;15.12;44.24
70434;BME280;57876;47.792;12.960;2023-02-27T00:50:31;96965.53;;;15.19;43.89
70434;BME280;57876;47.792;12.960;2023-02-27T00:52:55;96963.91;;;15.18;43.74
70434;BME280;57876;47.792;12.960;2023-02-27T00:55:19;96962.94;;;15.14;44.15
70434;BME280;57876;47.792;12.960;2023-02-27T00:57:44;96947.53;;;15.10;43.71
70434;BME280;57876;47.792;12.960;2023-02-27T01:00:09;96965.03;;;15.17;43.89
70434;BME280;57876;47.792;12.960;2023-02-27T01:02:34;96957.50;;;15.14;44.08
70434;BME280;57876;47.792;12.960;2023-02-27T01:04:59;96964.53;;;15.15;43.65
70434;BME280;57876;47.792;12.960;2023-02-27T01:07:23;96958.28;;;15.15;43.76
70434;BME280;57876;47.792;12.960;2023-02-27T01:09:47;96955.41;;;15.11;43.92
70434;BME280;57876;47.792;12.960;2023-02-27T01:12:12;96946.53;;;15.06;43.85
70434;BME280;57876;47.792;12.960;2023-02-27T01:14:36;96962.16;;;15.14;43.53
70434;BME280;57876;47.792;12.960;2023-02-27T01:17:03;96955.69;;;15.10;44.16
70434;BME280;57876;47.792;12.960;2023-02-27T01:19:28;96960.34;;;15.09;43.66
70434;BME280;57876;47.792;12.960;2023-02-27T01:21:52;96953.59;;;15.07;43.92
70434;BME280;57876;47.792;12.960;2023-02-27T01:24:16;96943.81;;;15.06;44.00
70434;BME280;57876;47.792;12.960;2023-02-27T01:26:42;96945.53;;;15.02;43.73
70434;BME280;57876;47.792;12.960;2023-02-27T01:29:07;96951.16;;;15.05;43.75
70434;BME280;57876;47.792;12.960;2023-02-27T01:31:32;96964.06;;;15.13;43.62
70434;BME280;57876;47.792;12.960;2023-02-27T01:33:57;96964.38;;;15.12;43.58
70434;BME280;57876;47.792;12.960;2023-02-27T01:36:21;96959.22;;;15.10;43.73
70434;BME280;57876;47.792;12.960;2023-02-27T01:38:45;96964.66;;;15.10;43.65
70434;BME280;57876;47.792;12.960;2023-02-27T01:41:11;96961.94;;;15.10;43.45
70434;BME280;57876;47.792;12.960;2023-02-27T01:43:59;96963.88;;;15.10;43.78
70434;BME280;57876;47.792;12.960;2023-02-27T01:46:24;96949.56;;;15.04;43.61
70434;BME280;57876;47.792;12.960;2023-02-27T01:48:51;96950.06;;;15.06;43.57
70434;BME280;57876;47.792;12.960;2023-02-27T01:51:19;96949.56;;;15.04;43.50
70434;BME280;57876;47.792;12.960;2023-02-27T01:53:46;96954.59;;;15.11;43.61
70434;BME280;57876;47.792;12.960;2023-02-27T01:56:15;96960.34;;;15.09;43.54
70434;BME280;57876;47.792;12.960;2023-02-27T01:58:42;96959.53;;;15.09;43.31
70434;BME280;57876;47.792;12.960;2023-02-27T02:01:07;96957.13;;;15.07;43.29
70434;BME280;57876;47.792;12.960;2023-02-27T02:03:54;96941.72;;;15.03;43.52
70434;BME280;57876;47.792;12.960;2023-02-27T02:06:21;96949.28;;;15.06;43.51
70434;BME280;57876;47.792;12.960;2023-02-27T02:08:48;96947.00;;;15.08;43.37
70434;BME280;57876;47.792;12.960;2023-02-27T02:11:15;96960.63;;;15.08;43.39
70434;BME280;57876;47.792;12.960;2023-02-27T02:13:41;96950.38;;;15.05;43.58
70434;BME280;57876;47.792;12.960;2023-02-27T02:18:48;96950.38;;;15.05;43.60
70434;BME280;57876;47.792;12.960;2023-02-27T02:21:24;96952.78;;;15.06;43.45
70434;BME280;57876;47.792;12.960;2023-02-27T02:29:33;96952.00;;;15.06;43.57
70434;BME280;57876;47.792;12.960;2023-02-27T02:32:19;96954.50;;;15.02;43.27
70434;BME280;57876;47.792;12.960;2023-02-27T02:40:38;96953.88;;;15.05;43.39
70434;BME280;57876;47.792;12.960;2023-02-27T02:43:12;96961.59;;;15.03;43.57
70434;BME280;57876;47.792;12.960;2023-02-27T02:45:50;96956.13;;;15.03;43.38
70434;BME280;57876;47.792;12.960;2023-02-27T02:48:34;96947.75;;;15.00;43.35
70434;BME280;57876;47.792;12.960;2023-02-27T02:56:23;96946.66;;;15.01;43.44
70434;BME280;57876;47.792;12.960;2023-02-27T02:59:16;96946.66;;;15.01;43.20
70434;BME280;57876;47.792;12.960;2023-02-27T03:04:09;96949.06;;;15.02;43.13
70434;BME280;57876;47.792;12.960;2023-02-27T03:06:39;96959.16;;;15.02;43.13
70434;BME280;57876;47.792;12.960;2023-02-27T03:09:12;96954.22;;;15.04;43.41
70434;BME280;57876;47.792;12.960;2023-02-27T03:11:42;96952.63;;;15.03;43.32
70434;BME280;57876;47.792;12.960;2023-02-27T03:14:20;96956.44;;;15.02;43.20
70434;BME280;57876;47.792;12.960;2023-02-27T03:16:49;96967.50;;;15.05;43.30
70434;BME280;57876;47.792;12.960;2023-02-27T03:19:20;96963.97;;;15.05;43.31
70434;BME280;57876;47.792;12.960;2023-02-27T03:22:07;96959.66;;;15.04;43.15
70434;BME280;57876;47.792;12.960;2023-02-27T03:27:02;96963.50;;;15.03;43.12
70434;BME280;57876;47.792;12.960;2023-02-27T03:32:08;96972.16;;;15.05;43.06
70434;BME280;57876;47.792;12.960;2023-02-27T03:34:37;96961.09;;;15.01;43.10
70434;BME280;57876;47.792;12.960;2023-02-27T03:37:25;96975.69;;;15.05;43.20
70434;BME280;57876;47.792;12.960;2023-02-27T03:42:45;96979.53;;;15.04;43.13
70434;BME280;57876;47.792;12.960;2023-02-27T03:47:56;96977.53;;;14.96;43.25
70434;BME280;57876;47.792;12.960;2023-02-27T03:50:21;96982.06;;;15.01;42.85
70434;BME280;57876;47.792;12.960;2023-02-27T03:52:45;96973.09;;;15.00;43.09
70434;BME280;57876;47.792;12.960;2023-02-27T03:55:34;96972.09;;;14.96;43.03
70434;BME280;57876;47.792;12.960;2023-02-27T03:57:59;96978.56;;;15.00;42.70
70434;BME280;57876;47.792;12.960;2023-02-27T04:00:25;96983.38;;;15.03;42.96
70434;BME280;57876;47.792;12.960;2023-02-27T04:02:51;96968.88;;;14.94;43.21
70434;BME280;57876;47.792;12.960;2023-02-27T04:05:18;96980.94;;;15.02;43.20
70434;BME280;57876;47.792;12.960;2023-02-27T04:16:10;97000.53;;;15.04;42.99
70434;BME280;57876;47.792;12.960;2023-02-27T04:24:33;96997.28;;;15.02;42.99
70434;BME280;57876;47.792;12.960;2023-02-27T04:27:11;96985.09;;;14.99;42.68
70434;BME280;57876;47.792;12.960;2023-02-27T04:29:54;96992.47;;;14.98;42.63
70434;BME280;57876;47.792;12.960;2023-02-27T04:32:37;96993.25;;;14.99;42.61
70434;BME280;57876;47.792;12.960;2023-02-27T04:35:09;97004.16;;;14.99;42.88
70434;BME280;57876;47.792;12.960;2023-02-27T04:37:47;96992.97;;;15.01;42.59
70434;BME280;57876;47.792;12.960;2023-02-27T04:40:34;96998.41;;;15.01;42.65
70434;BME280;57876;47.792;12.960;2023-02-27T04:43:00;97000.00;;;15.02;42.74
70434;BME280;57876;47.792;12.960;2023-02-27T04:45:27;97002.75;;;15.02;42.95
70434;BME280;57876;47.792;12.960;2023-02-27T04:48:05;96988.44;;;14.96;42.64
70434;BME280;57876;47.792;12.960;2023-02-27T04:50:40;96985.22;;;14.94;42.83
70434;BME280;57876;47.792;12.960;2023-02-27T04:53:17;96997.28;;;15.02;42.74
70434;BME280;57876;47.792;12.960;2023-02-27T04:55:46;96987.31;;;14.97;42.79
70434;BME280;57876;47.792;12.960;2023-02-27T04:58:27;96986.84;;;14.95;42.70
70434;BME280;57876;47.792;12.960;2023-02-27T05:00:59;96991.97;;;14.96;42.90
70434;BME280;57876;47.792;12.960;2023-02-27T05:03:29;96991.66;;;14.98;42.79
70434;BME280;57876;47.792;12.960;2023-02-27T05:05:58;96973.81;;;14.92;42.85
70434;BME280;57876;47.792;12.960;2023-02-27T05:08:38;96989.91;;;15.02;42.78
70434;BME280;57876;47.792;12.960;2023-02-27T05:13:38;96998.09;;;15.02;42.72
70434;BME280;57876;47.792;12.960;2023-02-27T05:16:10;96984.59;;;14.97;42.66
70434;BME280;57876;47.792;12.960;2023-02-27T05:18:44;96986.50;;;14.96;42.69
70434;BME280;57876;47.792;12.960;2023-02-27T05:32:18;96994.56;;;15.02;42.47
70434;BME280;57876;47.792;12.960;2023-02-27T05:35:02;96989.75;;;14.98;42.32
70434;BME280;57876;47.792;12.960;2023-02-27T05:37:33;96991.66;;;14.98;42.47
70434;BME280;57876;47.792;12.960;2023-02-27T05:40:03;96984.59;;;14.97;42.60
70434;BME280;57876;47.792;12.960;2023-02-27T05:42:35;96994.56;;;15.02;42.65
70434;BME280;57876;47.792;12.960;2023-02-27T05:45:16;96986.22;;;14.98;42.50
70434;BME280;57876;47.792;12.960;2023-02-27T05:47:52;96993.88;;;14.96;42.31
70434;BME280;57876;47.792;12.960;2023-02-27T05:50:22;96999.84;;;14.98;42.61
70434;BME280;57876;47.792;12.960;2023-02-27T05:52:50;97003.53;;;15.02;42.46
70434;BME280;57876;47.792;12.960;2023-02-27T05:55:21;96979.75;;;14.94;42.54
70434;BME280;57876;47.792;12.960;2023-02-27T06:00:42;97010.00;;;15.06;42.65
70434;BME280;57876;47.792;12.960;2023-02-27T06:03:08;97005.16;;;15.03;42.59
70434;BME280;57876;47.792;12.960;2023-02-27T06:05:32;97002.13;;;15.05;42.51
70434;BME280;57876;47.792;12.960;2023-02-27T06:07:58;97000.53;;;15.04;42.60
70434;BME280;57876;47.792;12.960;2023-02-27T06:10:23;97001.03;;;15.06;42.52
70434;BME280;57876;47.792;12.960;2023-02-27T06:12:49;97005.63;;;15.05;42.38
70434;BME280;57876;47.792;12.960;2023-02-27T06:15:13;97001.31;;;15.04;42.58
70434;BME280;57876;47.792;12.960;2023-02-27T06:17:38;96998.09;;;15.02;42.80
70434;BME280;57876;47.792;12.960;2023-02-27T06:20:02;97010.50;;;15.08;42.81
70434;BME280;57876;47.792;12.960;2023-02-27T06:22:27;96999.22;;;15.01;42.37
70434;BME280;57876;47.792;12.960;2023-02-27T06:24:51;97003.53;;;15.02;42.73
70434;BME280;57876;47.792;12.960;2023-02-27T06:27:16;97006.66;;;15.09;42.60
70434;BME280;57876;47.792;12.960;2023-02-27T06:29:40;97005.78;;;15.00;42.55
70434;BME280;57876;47.792;12.960;2023-02-27T06:32:04;97010.00;;;15.06;42.80
70434;BME280;57876;47.792;12.960;2023-02-27T06:34:29;97008.38;;;15.05;42.60
70434;BME280;57876;47.792;12.960;2023-02-27T06:36:53;97004.84;;;15.05;42.69
70434;BME280;57876;47.792;12.960;2023-02-27T06:39:17;97020.16;;;15.14;42.61
70434;BME280;57876;47.792;12.960;2023-02-27T06:41:42;97015.31;;;15.11;42.75
70434;BME280;57876;47.792;12.960;2023-02-27T06:44:06;97022.06;;;15.14;42.34
70434;BME280;57876;47.792;12.960;2023-02-27T06:46:31;97018.06;;;15.11;42.84
70434;BME280;57876;47.792;12.960;2023-02-27T06:48:55;97020.28;;;15.09;42.61
70434;BME280;57876;47.792;12.960;2023-02-27T06:51:20;97019.34;;;15.14;42.70
70434;BME280;57876;47.792;12.960;2023-02-27T06:53:44;97010.00;;;15.06;42.76
70434;BME280;57876;47.792;12.960;2023-02-27T06:56:08;97013.91;;;15.14;42.63
70434;BME280;57876;47.792;12.960;2023-02-27T06:58:33;96998.59;;;15.04;42.80
70434;BME280;57876;47.792;12.960;2023-02-27T07:00:58;97013.56;;;15.15;42.66
70434;BME280;57876;47.792;12.960;2023-02-27T07:03:24;97020.66;;;15.16;42.60
70434;BME280;57876;47.792;12.960;2023-02-27T07:05:48;97022.59;;;15.16;42.55
70434;BME280;57876;47.792;12.960;2023-02-27T07:08:13;97024.97;;;15.17;42.74
70434;BME280;57876;47.792;12.960;2023-02-27T07:10:40;97011.97;;;15.14;43.01
70434;BME280;57876;47.792;12.960;2023-02-27T07:13:07;97007.03;;;15.16;42.66
70434;BME280;57876;47.792;12.960;2023-02-27T07:15:31;97005.53;;;15.10;42.86
70434;BME280;57876;47.792;12.960;2023-02-27T07:17:56;97005.72;;;15.14;42.11
70434;BME280;57876;47.792;12.960;2023-02-27T07:20:21;97011.34;;;15.17;42.48
70434;BME280;57876;47.792;12.960;2023-02-27T07:22:45;97011.88;;;15.19;42.50
70434;BME280;57876;47.792;12.960;2023-02-27T07:25:10;97009.25;;;15.14;42.61
70434;BME280;57876;47.792;12.960;2023-02-27T07:27:34;97007.66;;;15.13;42.59
70434;BME280;57876;47.792;12.960;2023-02-27T07:29:58;97012.59;;;15.11;42.73
70434;BME280;57876;47.792;12.960;2023-02-27T07:32:24;97019.03;;;15.15;42.43
70434;BME280;57876;47.792;12.960;2023-02-27T07:34:48;97016.13;;;15.12;42.65
70434;BME280;57876;47.792;12.960;2023-02-27T07:37:13;97018.06;;;15.11;42.23
70434;BME280;57876;47.792;12.960;2023-02-27T07:39:37;97029.31;;;15.18;42.35
70434;BME280;57876;47.792;12.960;2023-02-27T07:42:02;97021.28;;;15.13;42.77
70434;BME280;57876;47.792;12.960;2023-02-27T07:44:27;97032.03;;;15.18;42.61
70434;BME280;57876;47.792;12.960;2023-02-27T07:46:51;97029.44;;;15.13;42.13
70434;BME280;57876;47.792;12.960;2023-02-27T07:49:15;97026.72;;;15.13;42.52
70434;BME280;57876;47.792;12.960;2023-02-27T07:51:40;97033.16;;;15.17;42.35
70434;BME280;57876;47.792;12.960;2023-02-27T07:54:04;97031.56;;;15.16;42.46
70434;BME280;57876;47.792;12.960;2023-02-27T07:56:29;97036.38;;;15.19;42.56
70434;BME280;57876;47.792;12.960;2023-02-27T07:58:53;97034.75;;;15.18;42.36
70434;BME280;57876;47.792;12.960;2023-02-27T08:01:17;97036.69;;;15.18;42.27
70434;BME280;57876;47.792;12.960;2023-02-27T08:03:42;97027.53;;;15.14;42.43
70434;BME280;57876;47.792;12.960;2023-02-27T08:06:06;97044.22;;;15.21;42.65
70434;BME280;57876;47.792;12.960;2023-02-27T08:08:31;97027.19;;;15.15;42.38
70434;BME280;57876;47.792;12.960;2023-02-27T08:10:55;97031.06;;;15.14;42.48
70434;BME280;57876;47.792;12.960;2023-02-27T08:13:19;97032.19;;;15.13;42.38
70434;BME280;57876;47.792;12.960;2023-02-27T08:15:45;97043.13;;;15.22;42.30
70434;BME280;57876;47.792;12.960;2023-02-27T08:18:09;97040.19;;;15.18;42.21
70434;BME280;57876;47.792;12.960;2023-02-27T08:20:33;97047.78;;;15.22;42.55
70434;BME280;57876;47.792;12.960;2023-02-27T08:22:58;97034.41;;;15.11;42.72
70434;BME280;57876;47.792;12.960;2023-02-27T08:25:23;97050.50;;;15.22;42.20
70434;BME280;57876;47.792;12.960;2023-02-27T08:27:47;97039.63;;;15.22;42.39
70434;BME280;57876;47.792;12.960;2023-02-27T08:30:12;97033.16;;;15.17;42.40
70434;BME280;57876;47.792;12.960;2023-02-27T08:32:36;97044.56;;;15.19;42.50
70434;BME280;57876;47.792;12.960;2023-02-27T08:35:02;97037.91;;;15.12;42.70
70434;BME280;57876;47.792;12.960;2023-02-27T08:37:27;97040.81;;;15.15;42.55
70434;BME280;57876;47.792;12.960;2023-02-27T08:39:51;97047.28;;;15.19;42.32
70434;BME280;57876;47.792;12.960;2023-02-27T08:42:15;97045.66;;;15.18;42.23
70434;BME280;57876;47.792;12.960;2023-02-27T08:44:40;97050.50;;;15.22;42.21
70434;BME280;57876;47.792;12.960;2023-02-27T08:47:04;97056.75;;;15.22;42.23
70434;BME280;57876;47.792;12.960;2023-02-27T08:49:29;97059.78;;;15.20;42.17
70434;BME280;57876;47.792;12.960;2023-02-27T08:51:53;97056.53;;;15.18;42.09
70434;BME280;57876;47.792;12.960;2023-02-27T08:54:18;97059.47;;;15.22;42.37
70434;BME280;57876;47.792;12.960;2023-02-27T08:56:44;97051.72;;;15.15;42.32
70434;BME280;57876;47.792;12.960;2023-02-27T08:59:08;97054.16;;;15.17;41.91
70434;BME280;57876;47.792;12.960;2023-02-27T09:01:32;97049.63;;;15.12;42.28
70434;BME280;57876;47.792;12.960;2023-02-27T09:03:57;97056.06;;;15.16;42.18
70434;BME280;57876;47.792;12.960;2023-02-27T09:06:22;97066.03;;;15.21;42.11
70434;BME280;57876;47.792;12.960;2023-02-27T09:08:46;97056.53;;;15.18;41.95
70434;BME280;57876;47.792;12.960;2023-02-27T09:11:10;97075.50;;;15.24;41.96
70434;BME280;57876;47.792;12.960;2023-02-27T09:13:35;97075.03;;;15.22;42.23
70434;BME280;57876;47.792;12.960;2023-02-27T09:15:59;97072.59;;;15.20;42.15
70434;BME280;57876;47.792;12.960;2023-02-27T09:18:24;97077.75;;;15.22;41.96
70434;BME280;57876;47.792;12.960;2023-02-27T09:20:49;97089.13;;;15.24;41.97
70434;BME280;57876;47.792;12.960;2023-02-27T09:23:17;97092.97;;;15.23;42.33
70434;BME280;57876;47.792;12.960;2023-02-27T09:25:42;97074.63;;;15.14;42.00
70434;BME280;57876;47.792;12.960;2023-02-27T09:28:06;97078.16;;;15.15;41.90
70434;BME280;57876;47.792;12.960;2023-02-27T09:30:30;97086.84;;;15.17;41.91
70434;BME280;57876;47.792;12.960;2023-02-27T09:32:56;97086.22;;;15.20;42.21
70434;BME280;57876;47.792;12.960;2023-02-27T09:35:20;97089.25;;;15.18;41.99
70434;BME280;57876;47.792;12.960;2023-02-27T09:37:45;97092.78;;;15.19;42.06
70434;BME280;57876;47.792;12.960;2023-02-27T09:40:21;97108.53;;;15.22;41.79
70434;BME280;57876;47.792;12.960;2023-02-27T09:42:48;97108.72;;;15.26;41.81
70434;BME280;57876;47.792;12.960;2023-02-27T09:45:20;97098.72;;;15.21;41.83
70434;BME280;57876;47.792;12.960;2023-02-27T09:47:48;97097.63;;;15.22;41.94
70434;BME280;57876;47.792;12.960;2023-02-27T09:50:44;97105.81;;;15.22;41.71
70434;BME280;57876;47.792;12.960;2023-02-27T09:53:23;97107.41;;;15.23;41.91
70434;BME280;57876;47.792;12.960;2023-02-27T09:55:50;97103.88;;;15.23;41.87
70434;BME280;57876;47.792;12.960;2023-02-27T09:58:44;97108.72;;;15.26;41.96
70434;BME280;57876;47.792;12.960;2023-02-27T10:02:07;97110.94;;;15.24;41.74
70434;BME280;57876;47.792;12.960;2023-02-27T10:04:35;97112.84;;;15.23;41.84
70434;BME280;57876;47.792;12.960;2023-02-27T10:15:26;97125.38;;;15.24;41.66
70434;BME280;57876;47.792;12.960;2023-02-27T10:18:03;97131.63;;;15.25;41.33
70434;BME280;57876;47.792;12.960;2023-02-27T10:20:36;97120.34;;;15.17;41.53
70434;BME280;57876;47.792;12.960;2023-02-27T10:23:09;97125.78;;;15.17;41.55
70434;BME280;57876;47.792;12.960;2023-02-27T10:25:42;97128.41;;;15.23;41.23
70434;BME280;57876;47.792;12.960;2023-02-27T10:28:12;97135.78;;;15.22;41.66
70434;BME280;57876;47.792;12.960;2023-02-27T10:30:37;97133.84;;;15.23;41.78
70434;BME280;57876;47.792;12.960;2023-02-27T10:33:12;97124.19;;;15.16;41.67
70434;BME280;57876;47.792;12.960;2023-02-27T10:35:42;97136.28;;;15.24;41.67
70434;BME280;57876;47.792;12.960;2023-02-27T10:38:24;97146.06;;;15.25;41.75
70434;BME280;57876;47.792;12.960;2023-02-27T10:40:54;97139.31;;;15.23;41.75
70434;BME280;57876;47.792;12.960;2023-02-27T10:43:20;97145.25;;;15.25;41.73
70434;BME280;57876;47.792;12.960;2023-02-27T10:45:44;97145.56;;;15.23;41.85
70434;BME280;57876;47.792;12.960;2023-02-27T10:48:09;97144.47;;;15.24;41.70
70434;BME280;57876;47.792;12.960;2023-02-27T10:50:38;97137.69;;;15.22;41.33
70434;BME280;57876;47.792;12.960;2023-02-27T10:53:06;97139.31;;;15.23;41.45
70434;BME280;57876;47.792;12.960;2023-02-27T10:55:39;97139.31;;;15.23;41.56
70434;BME280;57876;47.792;12.960;2023-02-27T10:58:06;97133.06;;;15.22;41.56
70434;BME280;57876;47.792;12.960;2023-02-27T11:00:37;97137.09;;;15.25;41.65
70434;BME280;57876;47.792;12.960;2023-02-27T11:03:03;97130.00;;;15.24;41.55
70434;BME280;57876;47.792;12.960;2023-02-27T11:05:31;97131.13;;;15.23;41.40
70434;BME280;57876;47.792;12.960;2023-02-27T11:08:21;97134.97;;;15.22;41.32
70434;BME280;57876;47.792;12.960;2023-02-27T11:13:21;97142.72;;;15.28;41.22
70434;BME280;57876;47.792;12.960;2023-02-27T11:16:20;97135.03;;;15.30;41.19
70434;BME280;57876;47.792;12.960;2023-02-27T11:18:49;97124.06;;;15.22;41.35
70434;BME280;57876;47.792;12.960;2023-02-27T11:21:25;97135.22;;;15.34;41.22
70434;BME280;57876;47.792;12.960;2023-02-27T11:26:24;97120.50;;;15.35;41.22
70434;BME280;57876;47.792;12.960;2023-02-27T11:31:38;97126.13;;;15.38;40.89
70434;BME280;57876;47.792;12.960;2023-02-27T11:34:03;97113.94;;;15.36;41.05
70434;BME280;57876;47.792;12.960;2023-02-27T11:36:40;97129.03;;;15.42;40.91
70434;BME280;57876;47.792;12.960;2023-02-27T11:39:05;97126.94;;;15.39;40.87
70434;BME280;57876;47.792;12.960;2023-02-27T11:41:31;97119.88;;;15.38;41.04
70434;BME280;57876;47.792;12.960;2023-02-27T11:43:58;97131.78;;;15.42;41.02
70434;BME280;57876;47.792;12.960;2023-02-27T11:46:25;97131.47;;;15.44;40.97
70434;BME280;57876;47.792;12.960;2023-02-27T11:49:02;97126.31;;;15.42;40.66
70434;BME280;57876;47.792;12.960;2023-02-27T11:54:34;97125.69;;;15.45;40.67
70434;BME280;57876;47.792;12.960;2023-02-27T11:57:01;97107.34;;;15.37;40.86
70434;BME280;57876;47.792;12.960;2023-02-27T12:02:21;97113.81;;;15.41;40.90
70434;BME280;57876;47.792;12.960;2023-02-27T12:04:55;97116.72;;;15.45;40.48
70434;BME280;57876;47.792;12.960;2023-02-27T12:12:51;97119.44;;;15.45;40.36
70434;BME280;57876;47.792;12.960;2023-02-27T12:18:24;97113.69;;;15.46;40.25
70434;BME280;57876;47.792;12.960;2023-02-27T12:20:58;97107.06;;;15.38;40.69
70434;BME280;57876;47.792;12.960;2023-02-27T12:26:37;97111.16;;;15.50;40.20
70434;BME280;57876;47.792;12.960;2023-02-27T12:29:27;97123.97;;;15.49;40.13
70434;BME280;57876;47.792;12.960;2023-02-27T12:34:40;97110.19;;;15.46;40.36
70434;BME280;57876;47.792;12.960;2023-02-27T12:37:12;97093.94;;;15.40;40.49
70434;BME280;57876;47.792;12.960;2023-02-27T12:39:41;97101.66;;;15.47;40.63
70434;BME280;57876;47.792;12.960;2023-02-27T12:42:39;97117.41;;;15.50;40.25
70434;BME280;57876;47.792;12.960;2023-02-27T12:47:37;97116.59;;;15.50;40.27
70434;BME280;57876;47.792;12.960;2023-02-27T12:50:17;97115.31;;;15.47;39.79
70434;BME280;57876;47.792;12.960;2023-02-27T12:53:01;97121.75;;;15.51;40.21
70434;BME280;57876;47.792;12.960;2023-02-27T12:55:33;97114.22;;;15.48;40.01
70434;BME280;57876;47.792;12.960;2023-02-27T12:58:23;97120.97;;;15.51;40.35
70434;BME280;57876;47.792;12.960;2023-02-27T13:01:00;97108.75;;;15.48;40.08
70434;BME280;57876;47.792;12.960;2023-02-27T13:03:51;97108.13;;;15.51;40.14
70434;BME280;57876;47.792;12.960;2023-02-27T13:06:33;97108.75;;;15.48;39.91
70434;BME280;57876;47.792;12.960;2023-02-27T13:11:38;97121.75;;;15.51;40.24
70434;BME280;57876;47.792;12.960;2023-02-27T13:16:54;97121.25;;;15.49;40.11
70434;BME280;57876;47.792;12.960;2023-02-27T13:19:26;97119.03;;;15.51;39.81
70434;BME280;57876;47.792;12.960;2023-02-27T13:24:45;97095.03;;;15.39;39.99
70434;BME280;57876;47.792;12.960;2023-02-27T13:29:43;97105.53;;;15.46;40.00
70434;BME280;57876;47.792;12.960;2023-02-27T13:32:45;97114.09;;;15.53;39.52
70434;BME280;57876;47.792;12.960;2023-02-27T13:37:56;97110.06;;;15.51;39.86
70434;BME280;57876;47.792;12.960;2023-02-27T13:40:39;97107.34;;;15.51;40.00
70434;BME280;57876;47.792;12.960;2023-02-27T13:43:10;97110.78;;;15.65;39.83
70434;BME280;57876;47.792;12.960;2023-02-27T13:45:51;97102.16;;;16.17;39.35
70434;BME280;57876;47.792;12.960;2023-02-27T13:48:38;97116.00;;;16.60;39.50
70434;BME280;57876;47.792;12.960;2023-02-27T13:56:39;97121.16;;;17.36;38.45
70434;BME280;57876;47.792;12.960;2023-02-27T14:01:58;97112.84;;;17.59;38.87
70434;BME280;57876;47.792;12.960;2023-02-27T14:04:26;97114.09;;;17.70;38.48
70434;BME280;57876;47.792;12.960;2023-02-27T14:06:58;97113.94;;;17.84;38.21
70434;BME280;57876;47.792;12.960;2023-02-27T14:09:23;97124.41;;;17.91;38.22
70434;BME280;57876;47.792;12.960;2023-02-27T14:11:54;97109.13;;;17.90;38.78
70434;BME280;57876;47.792;12.960;2023-02-27T14:17:03;97118.38;;;18.23;38.69
70434;BME280;57876;47.792;12.960;2023-02-27T14:19:46;97117.72;;;18.26;38.47
70434;BME280;57876;47.792;12.960;2023-02-27T14:24:41;97109.34;;;18.32;38.28
70434;BME280;57876;47.792;12.960;2023-02-27T14:27:25;97121.53;;;18.43;38.33
70434;BME280;57876;47.792;12.960;2023-02-27T14:29:52;97115.88;;;18.48;38.35
70434;BME280;57876;47.792;12.960;2023-02-27T14:32:22;97108.16;;;18.50;38.26
70434;BME280;57876;47.792;12.960;2023-02-27T14:34:55;97099.44;;;18.48;38.32
70434;BME280;57876;47.792;12.960;2023-02-27T14:37:26;97105.91;;;18.52;38.22
70434;BME280;57876;47.792;12.960;2023-02-27T14:39:54;97098.00;;;18.51;38.25
70434;BME280;57876;47.792;12.960;2023-02-27T14:42:47;97121.63;;;18.64;38.26
70434;BME280;57876;47.792;12.960;2023-02-27T14:45:20;97111.00;;;18.62;38.40
70434;BME280;57876;47.792;12.960;2023-02-27T14:47:49;97117.41;;;18.66;38.29
70434;BME280;57876;47.792;12.960;2023-02-27T14:50:32;97108.88;;;18.68;38.33
70434;BME280;57876;47.792;12.960;2023-02-27T14:53:00;97119.34;;;18.75;38.22
70434;BME280;57876;47.792;12.960;2023-02-27T14:55:26;97122.56;;;18.77;38.24
70434;BME280;57876;47.792;12.960;2023-02-27T15:00:40;97123.19;;;18.74;38.36
70434;BME280;57876;47.792;12.960;2023-02-27T15:03:15;97131.59;;;18.68;38.41
70434;BME280;57876;47.792;12.960;2023-02-27T15:05:41;97135.50;;;18.67;38.57
70434;BME280;57876;47.792;12.960;2023-02-27T15:08:06;97132.75;;;18.67;38.54
70434;BME280;57876;47.792;12.960;2023-02-27T15:10:36;97131.94;;;18.67;37.96
70434;BME280;57876;47.792;12.960;2023-02-27T15:13:05;97131.94;;;18.67;38.57
70434;BME280;57876;47.792;12.960;2023-02-27T15:15:29;97142.38;;;18.74;38.18